sensor_id;sensor_type;location;lat;lon;timestamp;P1;durP1;ratioP1;P2;durP2;ratioP2
52586;SDS011;38480;52.724;6.436;2023-12-28T00:02:23;4.67;;;2.83;;
52586;SDS011;38480;52.724;6.436;2023-12-28T00:04:49;6.30;;;3.33;;
52586;SDS011;38480;52.724;6.436;2023-12-28T00:07:15;4.73;;;2.70;;
52586;SDS011;38480;52.724;6.436;2023-12-28T00:09:43;8.20;;;3.73;;
52586;SDS011;38480;52.724;6.436;2023-12-28T00:12:09;5.07;;;2.73;;
52586;SDS011;38480;52.724;6.436;2023-12-28T00:14:35;6.83;;;3.50;;
52586;SDS011;38480;52.724;6.436;2023-12-28T00:17:01;5.00;;;2.80;;
52586;SDS011;38480;52.724;6.436;2023-12-28T00:19:30;5.63;;;3.07;;
52586;SDS011;38480;52.724;6.436;2023-12-28T00:21:56;5.83;;;3.27;;
52586;SDS011;38480;52.724;6.436;2023-12-28T00:24:22;7.70;;;3.43;;
52586;SDS011;38480;52.724;6.436;2023-12-28T00:26:48;7.43;;;3.07;;
52586;SDS011;38480;52.724;6.436;2023-12-28T00:29:14;6.07;;;2.67;;
52586;SDS011;38480;52.724;6.436;2023-12-28T00:31:40;8.73;;;3.00;;
52586;SDS011;38480;52.724;6.436;2023-12-28T00:34:06;6.90;;;3.60;;
52586;SDS011;38480;52.724;6.436;2023-12-28T00:36:32;7.30;;;3.40;;
52586;SDS011;38480;52.724;6.436;2023-12-28T00:38:58;6.90;;;4.10;;
52586;SDS011;38480;52.724;6.436;2023-12-28T00:41:24;6.37;;;3.77;;
52586;SDS011;38480;52.724;6.436;2023-12-28T00:43:50;9.10;;;3.27;;
52586;SDS011;38480;52.724;6.436;2023-12-28T00:46:15;6.63;;;3.30;;
52586;SDS011;38480;52.724;6.436;2023-12-28T00:48:42;6.73;;;3.23;;
52586;SDS011;38480;52.724;6.436;2023-12-28T00:51:08;9.27;;;3.40;;
52586;SDS011;38480;52.724;6.436;2023-12-28T00:53:33;5.37;;;2.70;;
52586;SDS011;38480;52.724;6.436;2023-12-28T00:56:02;8.20;;;3.50;;
52586;SDS011;38480;52.724;6.436;2023-12-28T00:58:27;6.20;;;3.27;;
52586;SDS011;38480;52.724;6.436;2023-12-28T01:00:53;9.80;;;3.53;;
52586;SDS011;38480;52.724;6.436;2023-12-28T01:03:21;9.10;;;4.00;;
52586;SDS011;38480;52.724;6.436;2023-12-28T01:05:47;6.07;;;3.13;;
52586;SDS011;38480;52.724;6.436;2023-12-28T01:08:16;10.93;;;4.63;;
52586;SDS011;38480;52.724;6.436;2023-12-28T01:10:42;7.93;;;3.50;;
52586;SDS011;38480;52.724;6.436;2023-12-28T01:13:08;10.47;;;3.33;;
52586;SDS011;38480;52.724;6.436;2023-12-28T01:15:34;8.60;;;3.53;;
52586;SDS011;38480;52.724;6.436;2023-12-28T01:18:00;7.50;;;3.33;;
52586;SDS011;38480;52.724;6.436;2023-12-28T01:20:26;11.10;;;3.90;;
52586;SDS011;38480;52.724;6.436;2023-12-28T01:22:52;7.87;;;3.40;;
52586;SDS011;38480;52.724;6.436;2023-12-28T01:25:18;9.90;;;3.37;;
52586;SDS011;38480;52.724;6.436;2023-12-28T01:27:44;10.40;;;3.60;;
52586;SDS011;38480;52.724;6.436;2023-12-28T01:30:10;10.90;;;3.83;;
52586;SDS011;38480;52.724;6.436;2023-12-28T01:32:36;11.17;;;4.03;;
52586;SDS011;38480;52.724;6.436;2023-12-28T01:35:02;8.80;;;3.20;;
52586;SDS011;38480;52.724;6.436;2023-12-28T01:37:28;9.03;;;3.60;;
52586;SDS011;38480;52.724;6.436;2023-12-28T01:39:56;9.27;;;3.70;;
52586;SDS011;38480;52.724;6.436;2023-12-28T01:42:22;13.33;;;3.87;;
52586;SDS011;38480;52.724;6.436;2023-12-28T01:44:48;8.17;;;3.80;;
52586;SDS011;38480;52.724;6.436;2023-12-28T01:47:14;10.43;;;3.33;;
52586;SDS011;38480;52.724;6.436;2023-12-28T01:49:42;13.20;;;4.03;;
52586;SDS011;38480;52.724;6.436;2023-12-28T01:52:09;9.80;;;3.67;;
52586;SDS011;38480;52.724;6.436;2023-12-28T01:54:35;9.67;;;3.13;;
52586;SDS011;38480;52.724;6.436;2023-12-28T01:57:02;12.67;;;3.47;;
52586;SDS011;38480;52.724;6.436;2023-12-28T01:59:28;11.83;;;3.30;;
52586;SDS011;38480;52.724;6.436;2023-12-28T02:01:54;13.40;;;3.50;;
52586;SDS011;38480;52.724;6.436;2023-12-28T02:04:20;11.80;;;3.40;;
52586;SDS011;38480;52.724;6.436;2023-12-28T02:06:53;10.77;;;3.13;;
52586;SDS011;38480;52.724;6.436;2023-12-28T02:09:21;12.17;;;3.43;;
52586;SDS011;38480;52.724;6.436;2023-12-28T02:11:47;13.80;;;3.70;;
52586;SDS011;38480;52.724;6.436;2023-12-28T02:14:13;13.20;;;3.67;;
52586;SDS011;38480;52.724;6.436;2023-12-28T02:16:41;12.87;;;4.20;;
52586;SDS011;38480;52.724;6.436;2023-12-28T02:19:18;12.30;;;3.33;;
52586;SDS011;38480;52.724;6.436;2023-12-28T02:21:48;12.13;;;3.10;;
52586;SDS011;38480;52.724;6.436;2023-12-28T02:24:14;12.67;;;3.20;;
52586;SDS011;38480;52.724;6.436;2023-12-28T02:26:40;7.03;;;2.90;;
52586;SDS011;38480;52.724;6.436;2023-12-28T02:29:06;12.83;;;3.17;;
52586;SDS011;38480;52.724;6.436;2023-12-28T02:31:35;16.60;;;3.10;;
52586;SDS011;38480;52.724;6.436;2023-12-28T02:34:08;9.73;;;2.57;;
52586;SDS011;38480;52.724;6.436;2023-12-28T02:36:38;15.23;;;3.97;;
52586;SDS011;38480;52.724;6.436;2023-12-28T02:39:07;8.93;;;3.00;;
52586;SDS011;38480;52.724;6.436;2023-12-28T02:41:34;14.63;;;2.90;;
52586;SDS011;38480;52.724;6.436;2023-12-28T02:44:00;15.70;;;4.10;;
52586;SDS011;38480;52.724;6.436;2023-12-28T02:46:26;9.47;;;3.30;;
52586;SDS011;38480;52.724;6.436;2023-12-28T02:48:52;9.93;;;2.57;;
52586;SDS011;38480;52.724;6.436;2023-12-28T02:51:22;7.73;;;2.97;;
52586;SDS011;38480;52.724;6.436;2023-12-28T02:53:48;9.47;;;3.47;;
52586;SDS011;38480;52.724;6.436;2023-12-28T02:56:14;11.20;;;3.03;;
52586;SDS011;38480;52.724;6.436;2023-12-28T02:58:40;9.67;;;3.30;;
52586;SDS011;38480;52.724;6.436;2023-12-28T03:01:06;19.00;;;3.50;;
52586;SDS011;38480;52.724;6.436;2023-12-28T03:03:34;10.90;;;3.57;;
52586;SDS011;38480;52.724;6.436;2023-12-28T03:06:00;10.30;;;3.13;;
52586;SDS011;38480;52.724;6.436;2023-12-28T03:08:26;7.50;;;2.67;;
52586;SDS011;38480;52.724;6.436;2023-12-28T03:10:52;6.70;;;2.80;;
52586;SDS011;38480;52.724;6.436;2023-12-28T03:13:20;9.50;;;2.57;;
52586;SDS011;38480;52.724;6.436;2023-12-28T03:15:46;8.67;;;2.73;;
52586;SDS011;38480;52.724;6.436;2023-12-28T03:18:12;6.97;;;2.30;;
52586;SDS011;38480;52.724;6.436;2023-12-28T03:20:38;9.67;;;3.27;;
52586;SDS011;38480;52.724;6.436;2023-12-28T03:23:04;10.43;;;3.30;;
52586;SDS011;38480;52.724;6.436;2023-12-28T03:25:30;9.73;;;3.00;;
52586;SDS011;38480;52.724;6.436;2023-12-28T03:27:56;10.63;;;3.70;;
52586;SDS011;38480;52.724;6.436;2023-12-28T03:30:22;11.37;;;2.77;;
52586;SDS011;38480;52.724;6.436;2023-12-28T03:32:48;8.53;;;2.57;;
52586;SDS011;38480;52.724;6.436;2023-12-28T03:35:14;9.43;;;3.07;;
52586;SDS011;38480;52.724;6.436;2023-12-28T03:37:40;10.00;;;3.20;;
52586;SDS011;38480;52.724;6.436;2023-12-28T03:40:06;6.80;;;2.83;;
52586;SDS011;38480;52.724;6.436;2023-12-28T03:42:32;14.03;;;2.80;;
52586;SDS011;38480;52.724;6.436;2023-12-28T03:44:58;7.57;;;2.40;;
52586;SDS011;38480;52.724;6.436;2023-12-28T03:47:24;11.90;;;2.93;;
52586;SDS011;38480;52.724;6.436;2023-12-28T03:49:50;11.90;;;2.57;;
52586;SDS011;38480;52.724;6.436;2023-12-28T03:52:16;8.07;;;2.67;;
52586;SDS011;38480;52.724;6.436;2023-12-28T03:54:42;9.83;;;3.23;;
52586;SDS011;38480;52.724;6.436;2023-12-28T03:57:08;11.47;;;2.50;;
52586;SDS011;38480;52.724;6.436;2023-12-28T03:59:35;16.03;;;3.67;;
52586;SDS011;38480;52.724;6.436;2023-12-28T04:02:01;10.83;;;2.67;;
52586;SDS011;38480;52.724;6.436;2023-12-28T04:04:27;11.43;;;2.97;;
52586;SDS011;38480;52.724;6.436;2023-12-28T04:06:53;8.20;;;3.00;;
52586;SDS011;38480;52.724;6.436;2023-12-28T04:09:19;9.03;;;2.37;;
52586;SDS011;38480;52.724;6.436;2023-12-28T04:11:46;7.33;;;2.87;;
52586;SDS011;38480;52.724;6.436;2023-12-28T04:14:12;10.50;;;2.77;;
52586;SDS011;38480;52.724;6.436;2023-12-28T04:16:38;8.83;;;2.60;;
52586;SDS011;38480;52.724;6.436;2023-12-28T04:19:04;12.60;;;2.53;;
52586;SDS011;38480;52.724;6.436;2023-12-28T04:21:30;10.30;;;2.47;;
52586;SDS011;38480;52.724;6.436;2023-12-28T04:23:56;10.27;;;2.63;;
52586;SDS011;38480;52.724;6.436;2023-12-28T04:26:22;13.70;;;2.93;;
52586;SDS011;38480;52.724;6.436;2023-12-28T04:28:48;8.13;;;2.33;;
52586;SDS011;38480;52.724;6.436;2023-12-28T04:31:14;12.03;;;3.73;;
52586;SDS011;38480;52.724;6.436;2023-12-28T04:33:40;15.57;;;3.63;;
52586;SDS011;38480;52.724;6.436;2023-12-28T04:36:06;14.07;;;2.53;;
52586;SDS011;38480;52.724;6.436;2023-12-28T04:38:32;12.47;;;3.63;;
52586;SDS011;38480;52.724;6.436;2023-12-28T04:40:59;15.00;;;3.03;;
52586;SDS011;38480;52.724;6.436;2023-12-28T04:43:25;12.80;;;2.87;;
52586;SDS011;38480;52.724;6.436;2023-12-28T04:45:51;14.60;;;3.13;;
52586;SDS011;38480;52.724;6.436;2023-12-28T04:48:17;17.23;;;3.13;;
52586;SDS011;38480;52.724;6.436;2023-12-28T04:50:46;11.10;;;3.03;;
52586;SDS011;38480;52.724;6.436;2023-12-28T04:53:13;8.60;;;2.53;;
52586;SDS011;38480;52.724;6.436;2023-12-28T04:55:39;12.67;;;3.87;;
52586;SDS011;38480;52.724;6.436;2023-12-28T04:58:05;13.00;;;3.30;;
52586;SDS011;38480;52.724;6.436;2023-12-28T05:00:31;12.13;;;2.97;;
52586;SDS011;38480;52.724;6.436;2023-12-28T05:02:57;10.37;;;3.53;;
52586;SDS011;38480;52.724;6.436;2023-12-28T05:05:23;14.73;;;3.03;;
52586;SDS011;38480;52.724;6.436;2023-12-28T05:07:49;13.73;;;3.17;;
52586;SDS011;38480;52.724;6.436;2023-12-28T05:10:15;14.43;;;3.57;;
52586;SDS011;38480;52.724;6.436;2023-12-28T05:12:41;14.47;;;3.43;;
52586;SDS011;38480;52.724;6.436;2023-12-28T05:15:07;14.23;;;3.67;;
52586;SDS011;38480;52.724;6.436;2023-12-28T05:17:33;12.93;;;3.33;;
52586;SDS011;38480;52.724;6.436;2023-12-28T05:19:59;16.23;;;3.13;;
52586;SDS011;38480;52.724;6.436;2023-12-28T05:22:25;9.57;;;2.53;;
52586;SDS011;38480;52.724;6.436;2023-12-28T05:24:51;16.37;;;3.30;;
52586;SDS011;38480;52.724;6.436;2023-12-28T05:27:17;16.77;;;3.17;;
52586;SDS011;38480;52.724;6.436;2023-12-28T05:29:43;15.63;;;3.17;;
52586;SDS011;38480;52.724;6.436;2023-12-28T05:32:09;19.20;;;3.10;;
52586;SDS011;38480;52.724;6.436;2023-12-28T05:34:35;15.27;;;2.90;;
52586;SDS011;38480;52.724;6.436;2023-12-28T05:37:01;19.10;;;4.03;;
52586;SDS011;38480;52.724;6.436;2023-12-28T05:39:27;17.90;;;3.33;;
52586;SDS011;38480;52.724;6.436;2023-12-28T05:41:53;14.80;;;3.73;;
52586;SDS011;38480;52.724;6.436;2023-12-28T05:44:19;11.87;;;2.50;;
52586;SDS011;38480;52.724;6.436;2023-12-28T05:46:46;13.90;;;3.13;;
52586;SDS011;38480;52.724;6.436;2023-12-28T05:49:12;13.30;;;2.97;;
52586;SDS011;38480;52.724;6.436;2023-12-28T05:51:40;13.50;;;2.63;;
52586;SDS011;38480;52.724;6.436;2023-12-28T05:54:07;13.00;;;4.57;;
52586;SDS011;38480;52.724;6.436;2023-12-28T05:56:33;14.17;;;3.67;;
52586;SDS011;38480;52.724;6.436;2023-12-28T05:58:59;11.70;;;3.50;;
52586;SDS011;38480;52.724;6.436;2023-12-28T06:01:25;19.47;;;3.23;;
52586;SDS011;38480;52.724;6.436;2023-12-28T06:03:52;13.20;;;4.13;;
52586;SDS011;38480;52.724;6.436;2023-12-28T06:06:18;17.33;;;4.07;;
52586;SDS011;38480;52.724;6.436;2023-12-28T06:08:45;12.87;;;3.93;;
52586;SDS011;38480;52.724;6.436;2023-12-28T06:11:11;18.73;;;3.67;;
52586;SDS011;38480;52.724;6.436;2023-12-28T06:13:37;19.63;;;3.47;;
52586;SDS011;38480;52.724;6.436;2023-12-28T06:16:03;15.63;;;3.50;;
52586;SDS011;38480;52.724;6.436;2023-12-28T06:18:29;14.40;;;3.50;;
52586;SDS011;38480;52.724;6.436;2023-12-28T06:20:56;12.23;;;2.90;;
52586;SDS011;38480;52.724;6.436;2023-12-28T06:23:22;15.60;;;3.53;;
52586;SDS011;38480;52.724;6.436;2023-12-28T06:25:48;14.63;;;2.47;;
52586;SDS011;38480;52.724;6.436;2023-12-28T06:28:14;13.47;;;2.73;;
52586;SDS011;38480;52.724;6.436;2023-12-28T06:30:40;19.73;;;3.63;;
52586;SDS011;38480;52.724;6.436;2023-12-28T06:33:06;17.97;;;3.17;;
52586;SDS011;38480;52.724;6.436;2023-12-28T06:35:32;12.10;;;2.97;;
52586;SDS011;38480;52.724;6.436;2023-12-28T06:37:58;15.17;;;4.70;;
52586;SDS011;38480;52.724;6.436;2023-12-28T06:40:24;16.00;;;3.10;;
52586;SDS011;38480;52.724;6.436;2023-12-28T06:42:50;12.80;;;2.87;;
52586;SDS011;38480;52.724;6.436;2023-12-28T06:45:16;17.00;;;3.90;;
52586;SDS011;38480;52.724;6.436;2023-12-28T06:47:42;15.23;;;3.40;;
52586;SDS011;38480;52.724;6.436;2023-12-28T06:50:08;13.50;;;3.17;;
52586;SDS011;38480;52.724;6.436;2023-12-28T06:52:34;17.30;;;3.73;;
52586;SDS011;38480;52.724;6.436;2023-12-28T06:55:00;18.80;;;2.47;;
52586;SDS011;38480;52.724;6.436;2023-12-28T06:57:27;17.63;;;3.73;;
52586;SDS011;38480;52.724;6.436;2023-12-28T06:59:53;17.73;;;3.77;;
52586;SDS011;38480;52.724;6.436;2023-12-28T07:02:19;15.97;;;3.60;;
52586;SDS011;38480;52.724;6.436;2023-12-28T07:04:45;16.67;;;3.93;;
52586;SDS011;38480;52.724;6.436;2023-12-28T07:07:11;18.90;;;3.77;;
52586;SDS011;38480;52.724;6.436;2023-12-28T07:09:37;22.57;;;3.90;;
52586;SDS011;38480;52.724;6.436;2023-12-28T07:12:03;19.83;;;3.60;;
52586;SDS011;38480;52.724;6.436;2023-12-28T07:14:29;17.47;;;3.53;;
52586;SDS011;38480;52.724;6.436;2023-12-28T07:16:55;17.50;;;3.60;;
52586;SDS011;38480;52.724;6.436;2023-12-28T07:19:21;16.60;;;4.37;;
52586;SDS011;38480;52.724;6.436;2023-12-28T07:21:47;13.20;;;3.40;;
52586;SDS011;38480;52.724;6.436;2023-12-28T07:24:13;22.50;;;3.57;;
52586;SDS011;38480;52.724;6.436;2023-12-28T07:26:39;14.90;;;3.47;;
52586;SDS011;38480;52.724;6.436;2023-12-28T07:29:05;22.03;;;4.17;;
52586;SDS011;38480;52.724;6.436;2023-12-28T07:31:31;18.20;;;3.67;;
52586;SDS011;38480;52.724;6.436;2023-12-28T07:33:57;15.40;;;3.43;;
52586;SDS011;38480;52.724;6.436;2023-12-28T07:36:23;23.30;;;5.00;;
52586;SDS011;38480;52.724;6.436;2023-12-28T07:38:49;20.40;;;4.93;;
52586;SDS011;38480;52.724;6.436;2023-12-28T07:41:15;13.60;;;3.67;;
52586;SDS011;38480;52.724;6.436;2023-12-28T07:43:41;17.53;;;3.80;;
52586;SDS011;38480;52.724;6.436;2023-12-28T07:46:07;23.50;;;4.90;;
52586;SDS011;38480;52.724;6.436;2023-12-28T07:48:33;25.33;;;5.30;;
52586;SDS011;38480;52.724;6.436;2023-12-28T07:51:05;17.03;;;5.20;;
52586;SDS011;38480;52.724;6.436;2023-12-28T07:53:32;20.30;;;5.13;;
52586;SDS011;38480;52.724;6.436;2023-12-28T07:55:58;21.30;;;4.33;;
52586;SDS011;38480;52.724;6.436;2023-12-28T07:58:24;21.00;;;4.57;;
52586;SDS011;38480;52.724;6.436;2023-12-28T08:00:50;22.60;;;4.03;;
52586;SDS011;38480;52.724;6.436;2023-12-28T08:03:17;24.37;;;6.13;;
52586;SDS011;38480;52.724;6.436;2023-12-28T08:05:42;15.57;;;3.87;;
52586;SDS011;38480;52.724;6.436;2023-12-28T08:08:08;22.13;;;5.13;;
52586;SDS011;38480;52.724;6.436;2023-12-28T08:10:34;23.00;;;4.00;;
52586;SDS011;38480;52.724;6.436;2023-12-28T08:13:00;28.17;;;6.17;;
52586;SDS011;38480;52.724;6.436;2023-12-28T08:15:26;27.33;;;6.20;;
52586;SDS011;38480;52.724;6.436;2023-12-28T08:17:52;29.17;;;5.83;;
52586;SDS011;38480;52.724;6.436;2023-12-28T08:20:18;20.23;;;4.10;;
52586;SDS011;38480;52.724;6.436;2023-12-28T08:22:44;24.00;;;4.27;;
52586;SDS011;38480;52.724;6.436;2023-12-28T08:25:10;19.17;;;4.53;;
52586;SDS011;38480;52.724;6.436;2023-12-28T08:27:36;20.90;;;4.60;;
52586;SDS011;38480;52.724;6.436;2023-12-28T08:30:03;24.47;;;4.93;;
52586;SDS011;38480;52.724;6.436;2023-12-28T08:32:29;19.03;;;3.93;;
52586;SDS011;38480;52.724;6.436;2023-12-28T08:34:55;26.60;;;5.10;;
52586;SDS011;38480;52.724;6.436;2023-12-28T08:37:21;25.80;;;5.47;;
52586;SDS011;38480;52.724;6.436;2023-12-28T08:39:47;24.40;;;4.90;;
52586;SDS011;38480;52.724;6.436;2023-12-28T08:42:13;18.90;;;3.83;;
52586;SDS011;38480;52.724;6.436;2023-12-28T08:44:39;23.00;;;4.53;;
52586;SDS011;38480;52.724;6.436;2023-12-28T08:47:05;26.23;;;5.30;;
52586;SDS011;38480;52.724;6.436;2023-12-28T08:49:31;24.00;;;5.37;;
52586;SDS011;38480;52.724;6.436;2023-12-28T08:51:58;29.63;;;5.83;;
52586;SDS011;38480;52.724;6.436;2023-12-28T08:54:24;22.50;;;4.67;;
52586;SDS011;38480;52.724;6.436;2023-12-28T08:56:50;17.77;;;4.57;;
52586;SDS011;38480;52.724;6.436;2023-12-28T08:59:16;27.30;;;5.10;;
52586;SDS011;38480;52.724;6.436;2023-12-28T09:01:42;18.87;;;4.13;;
52586;SDS011;38480;52.724;6.436;2023-12-28T09:04:08;25.73;;;4.20;;
52586;SDS011;38480;52.724;6.436;2023-12-28T09:06:34;16.73;;;3.67;;
52586;SDS011;38480;52.724;6.436;2023-12-28T09:09:00;22.47;;;5.63;;
52586;SDS011;38480;52.724;6.436;2023-12-28T09:11:27;24.40;;;4.33;;
52586;SDS011;38480;52.724;6.436;2023-12-28T09:13:54;22.77;;;4.77;;
52586;SDS011;38480;52.724;6.436;2023-12-28T09:16:19;23.97;;;4.57;;
52586;SDS011;38480;52.724;6.436;2023-12-28T09:18:46;20.10;;;4.07;;
52586;SDS011;38480;52.724;6.436;2023-12-28T09:21:12;21.53;;;5.10;;
52586;SDS011;38480;52.724;6.436;2023-12-28T09:23:38;16.57;;;4.23;;
52586;SDS011;38480;52.724;6.436;2023-12-28T09:26:05;24.10;;;5.07;;
52586;SDS011;38480;52.724;6.436;2023-12-28T09:28:34;18.73;;;3.97;;
52586;SDS011;38480;52.724;6.436;2023-12-28T09:31:01;23.53;;;4.13;;
52586;SDS011;38480;52.724;6.436;2023-12-28T09:33:27;22.60;;;4.47;;
52586;SDS011;38480;52.724;6.436;2023-12-28T09:35:53;27.07;;;5.27;;
52586;SDS011;38480;52.724;6.436;2023-12-28T09:38:19;21.30;;;4.30;;
52586;SDS011;38480;52.724;6.436;2023-12-28T09:40:46;19.93;;;3.97;;
52586;SDS011;38480;52.724;6.436;2023-12-28T09:45:40;26.50;;;4.33;;
52586;SDS011;38480;52.724;6.436;2023-12-28T09:48:06;25.73;;;4.50;;
52586;SDS011;38480;52.724;6.436;2023-12-28T09:50:32;24.20;;;5.23;;
52586;SDS011;38480;52.724;6.436;2023-12-28T09:52:58;20.53;;;4.60;;
52586;SDS011;38480;52.724;6.436;2023-12-28T09:55:24;20.27;;;5.17;;
52586;SDS011;38480;52.724;6.436;2023-12-28T09:57:51;19.63;;;5.13;;
52586;SDS011;38480;52.724;6.436;2023-12-28T10:00:17;19.83;;;4.70;;
52586;SDS011;38480;52.724;6.436;2023-12-28T10:02:44;35.03;;;5.13;;
52586;SDS011;38480;52.724;6.436;2023-12-28T10:05:14;24.70;;;4.20;;
52586;SDS011;38480;52.724;6.436;2023-12-28T10:07:43;26.60;;;5.57;;
52586;SDS011;38480;52.724;6.436;2023-12-28T10:10:09;21.27;;;4.13;;
52586;SDS011;38480;52.724;6.436;2023-12-28T10:12:35;16.27;;;3.97;;
52586;SDS011;38480;52.724;6.436;2023-12-28T10:15:02;17.33;;;4.23;;
52586;SDS011;38480;52.724;6.436;2023-12-28T10:17:28;29.53;;;4.80;;
52586;SDS011;38480;52.724;6.436;2023-12-28T10:19:54;21.83;;;3.70;;
52586;SDS011;38480;52.724;6.436;2023-12-28T10:22:27;20.17;;;4.88;;
52586;SDS011;38480;52.724;6.436;2023-12-28T10:24:53;18.67;;;4.40;;
52586;SDS011;38480;52.724;6.436;2023-12-28T10:27:19;27.53;;;5.30;;
52586;SDS011;38480;52.724;6.436;2023-12-28T10:29:45;18.33;;;4.10;;
52586;SDS011;38480;52.724;6.436;2023-12-28T10:32:11;21.57;;;4.30;;
52586;SDS011;38480;52.724;6.436;2023-12-28T10:34:37;21.07;;;4.67;;
52586;SDS011;38480;52.724;6.436;2023-12-28T10:37:03;21.77;;;4.30;;
52586;SDS011;38480;52.724;6.436;2023-12-28T10:39:31;18.87;;;4.77;;
52586;SDS011;38480;52.724;6.436;2023-12-28T10:41:58;19.30;;;4.77;;
52586;SDS011;38480;52.724;6.436;2023-12-28T10:44:26;19.20;;;3.67;;
52586;SDS011;38480;52.724;6.436;2023-12-28T10:46:55;21.23;;;4.57;;
52586;SDS011;38480;52.724;6.436;2023-12-28T10:49:24;17.63;;;4.00;;
52586;SDS011;38480;52.724;6.436;2023-12-28T10:51:51;17.60;;;3.60;;
52586;SDS011;38480;52.724;6.436;2023-12-28T10:56:45;17.97;;;4.00;;
52586;SDS011;38480;52.724;6.436;2023-12-28T11:01:39;16.83;;;3.33;;
52586;SDS011;38480;52.724;6.436;2023-12-28T11:06:50;22.03;;;4.50;;
52586;SDS011;38480;52.724;6.436;2023-12-28T11:09:17;20.10;;;3.60;;
52586;SDS011;38480;52.724;6.436;2023-12-28T11:11:43;23.87;;;4.20;;
52586;SDS011;38480;52.724;6.436;2023-12-28T11:14:10;27.57;;;5.73;;
52586;SDS011;38480;52.724;6.436;2023-12-28T11:16:36;16.00;;;3.60;;
52586;SDS011;38480;52.724;6.436;2023-12-28T11:19:03;17.47;;;3.90;;
52586;SDS011;38480;52.724;6.436;2023-12-28T11:21:29;21.00;;;4.83;;
52586;SDS011;38480;52.724;6.436;2023-12-28T11:23:56;24.60;;;4.20;;
52586;SDS011;38480;52.724;6.436;2023-12-28T11:26:22;17.07;;;3.77;;
52586;SDS011;38480;52.724;6.436;2023-12-28T11:28:48;24.30;;;3.60;;
52586;SDS011;38480;52.724;6.436;2023-12-28T11:31:15;18.63;;;3.53;;
52586;SDS011;38480;52.724;6.436;2023-12-28T11:33:45;19.30;;;3.97;;
52586;SDS011;38480;52.724;6.436;2023-12-28T11:36:11;11.70;;;3.37;;
52586;SDS011;38480;52.724;6.436;2023-12-28T11:38:38;17.93;;;3.70;;
52586;SDS011;38480;52.724;6.436;2023-12-28T11:41:06;17.10;;;3.07;;
52586;SDS011;38480;52.724;6.436;2023-12-28T11:43:34;23.70;;;4.30;;
52586;SDS011;38480;52.724;6.436;2023-12-28T11:46:00;21.53;;;4.70;;
52586;SDS011;38480;52.724;6.436;2023-12-28T11:48:30;26.40;;;6.10;;
52586;SDS011;38480;52.724;6.436;2023-12-28T11:50:57;26.37;;;5.23;;
52586;SDS011;38480;52.724;6.436;2023-12-28T11:53:23;22.47;;;5.33;;
52586;SDS011;38480;52.724;6.436;2023-12-28T11:55:50;28.57;;;5.00;;
52586;SDS011;38480;52.724;6.436;2023-12-28T11:58:16;18.00;;;4.17;;
52586;SDS011;38480;52.724;6.436;2023-12-28T12:00:43;27.90;;;4.33;;
52586;SDS011;38480;52.724;6.436;2023-12-28T12:03:10;21.13;;;5.37;;
52586;SDS011;38480;52.724;6.436;2023-12-28T12:05:36;20.97;;;4.23;;
52586;SDS011;38480;52.724;6.436;2023-12-28T12:08:03;22.47;;;4.77;;
52586;SDS011;38480;52.724;6.436;2023-12-28T12:10:29;23.80;;;5.10;;
52586;SDS011;38480;52.724;6.436;2023-12-28T12:12:57;21.37;;;3.53;;
52586;SDS011;38480;52.724;6.436;2023-12-28T12:15:27;20.83;;;4.20;;
52586;SDS011;38480;52.724;6.436;2023-12-28T12:17:54;24.93;;;5.30;;
52586;SDS011;38480;52.724;6.436;2023-12-28T12:20:25;26.57;;;5.30;;
52586;SDS011;38480;52.724;6.436;2023-12-28T12:22:56;27.50;;;5.77;;
52586;SDS011;38480;52.724;6.436;2023-12-28T12:25:22;23.27;;;4.67;;
52586;SDS011;38480;52.724;6.436;2023-12-28T12:27:48;23.60;;;5.33;;
52586;SDS011;38480;52.724;6.436;2023-12-28T12:30:15;26.70;;;5.40;;
52586;SDS011;38480;52.724;6.436;2023-12-28T12:32:41;20.40;;;4.60;;
52586;SDS011;38480;52.724;6.436;2023-12-28T12:35:09;25.80;;;4.50;;
52586;SDS011;38480;52.724;6.436;2023-12-28T12:37:36;26.90;;;4.63;;
52586;SDS011;38480;52.724;6.436;2023-12-28T12:40:03;20.03;;;3.87;;
52586;SDS011;38480;52.724;6.436;2023-12-28T12:42:31;29.47;;;6.10;;
52586;SDS011;38480;52.724;6.436;2023-12-28T12:44:57;25.53;;;4.30;;
52586;SDS011;38480;52.724;6.436;2023-12-28T12:47:23;25.17;;;4.80;;
52586;SDS011;38480;52.724;6.436;2023-12-28T12:49:51;23.03;;;4.33;;
52586;SDS011;38480;52.724;6.436;2023-12-28T12:52:17;21.43;;;4.00;;
52586;SDS011;38480;52.724;6.436;2023-12-28T12:54:52;28.90;;;5.60;;
52586;SDS011;38480;52.724;6.436;2023-12-28T12:57:18;27.08;;;5.13;;
52586;SDS011;38480;52.724;6.436;2023-12-28T12:59:45;23.37;;;4.57;;
52586;SDS011;38480;52.724;6.436;2023-12-28T13:02:11;27.67;;;5.23;;
52586;SDS011;38480;52.724;6.436;2023-12-28T13:04:38;19.90;;;4.20;;
52586;SDS011;38480;52.724;6.436;2023-12-28T13:07:04;19.93;;;3.93;;
52586;SDS011;38480;52.724;6.436;2023-12-28T13:09:30;23.03;;;4.63;;
52586;SDS011;38480;52.724;6.436;2023-12-28T13:11:56;23.70;;;4.73;;
52586;SDS011;38480;52.724;6.436;2023-12-28T13:14:22;26.13;;;4.30;;
52586;SDS011;38480;52.724;6.436;2023-12-28T13:16:48;24.23;;;5.47;;
52586;SDS011;38480;52.724;6.436;2023-12-28T13:19:19;23.30;;;5.53;;
52586;SDS011;38480;52.724;6.436;2023-12-28T13:21:45;23.17;;;5.30;;
52586;SDS011;38480;52.724;6.436;2023-12-28T13:24:11;21.47;;;4.50;;
52586;SDS011;38480;52.724;6.436;2023-12-28T13:26:37;23.50;;;4.67;;
52586;SDS011;38480;52.724;6.436;2023-12-28T13:29:03;24.23;;;5.37;;
52586;SDS011;38480;52.724;6.436;2023-12-28T13:31:29;27.13;;;5.33;;
52586;SDS011;38480;52.724;6.436;2023-12-28T13:33:55;21.20;;;4.53;;
52586;SDS011;38480;52.724;6.436;2023-12-28T13:36:21;20.17;;;4.37;;
52586;SDS011;38480;52.724;6.436;2023-12-28T13:38:51;21.20;;;5.43;;
52586;SDS011;38480;52.724;6.436;2023-12-28T13:41:17;20.07;;;4.77;;
52586;SDS011;38480;52.724;6.436;2023-12-28T13:43:43;33.60;;;7.17;;
52586;SDS011;38480;52.724;6.436;2023-12-28T13:46:09;26.40;;;4.10;;
52586;SDS011;38480;52.724;6.436;2023-12-28T13:48:35;25.50;;;5.10;;
52586;SDS011;38480;52.724;6.436;2023-12-28T13:51:04;23.30;;;4.73;;
52586;SDS011;38480;52.724;6.436;2023-12-28T13:53:30;21.87;;;4.37;;
52586;SDS011;38480;52.724;6.436;2023-12-28T13:55:59;26.53;;;4.83;;
52586;SDS011;38480;52.724;6.436;2023-12-28T13:58:25;25.57;;;4.60;;
52586;SDS011;38480;52.724;6.436;2023-12-28T14:00:53;16.73;;;3.60;;
52586;SDS011;38480;52.724;6.436;2023-12-28T14:03:19;21.30;;;5.00;;
52586;SDS011;38480;52.724;6.436;2023-12-28T14:05:45;19.27;;;3.80;;
52586;SDS011;38480;52.724;6.436;2023-12-28T14:08:11;21.80;;;3.97;;
52586;SDS011;38480;52.724;6.436;2023-12-28T14:10:37;19.27;;;3.97;;
52586;SDS011;38480;52.724;6.436;2023-12-28T14:13:04;19.80;;;5.03;;
52586;SDS011;38480;52.724;6.436;2023-12-28T14:15:30;18.73;;;4.50;;
52586;SDS011;38480;52.724;6.436;2023-12-28T14:17:56;25.63;;;4.60;;
52586;SDS011;38480;52.724;6.436;2023-12-28T14:20:22;22.13;;;6.07;;
52586;SDS011;38480;52.724;6.436;2023-12-28T14:22:48;22.03;;;3.73;;
52586;SDS011;38480;52.724;6.436;2023-12-28T14:25:14;22.47;;;4.20;;
52586;SDS011;38480;52.724;6.436;2023-12-28T14:27:41;19.47;;;4.20;;
52586;SDS011;38480;52.724;6.436;2023-12-28T14:30:07;28.40;;;4.67;;
52586;SDS011;38480;52.724;6.436;2023-12-28T14:32:35;22.50;;;3.97;;
52586;SDS011;38480;52.724;6.436;2023-12-28T14:35:01;22.87;;;3.83;;
52586;SDS011;38480;52.724;6.436;2023-12-28T14:37:27;24.10;;;4.00;;
52586;SDS011;38480;52.724;6.436;2023-12-28T14:39:53;20.97;;;5.30;;
52586;SDS011;38480;52.724;6.436;2023-12-28T14:42:19;18.10;;;4.50;;